Terminal Aerodrome Forecast
Issued by NWS Sioux Falls, SD

Home | Current Version | Previous Version | Text Only | Print | Product List | Glossary On
Versions: 1 2 3 4 5 6 7 8 9 10 11 12 13 14
415
FTUS43 KFSD 221120
TAFFSD
TAF
KFSD 221120Z 2212/2312 25004KT P6SM FEW250
     FM221500 25006KT P6SM SKC
     FM221800 23011KT P6SM SKC
     FM222300 18007KT P6SM FEW200
     FM230500 25008KT P6SM SCT100
     FM231000 29012KT P6SM BKN080=

USA.gov is the U.S. government's official web portal to all federal, state and local government web resources and services.